Time;durP1;ratioP1;P1;durP2;ratioP2;P2;SDS_P1;SDS_P2;PMS_P1;PMS_P2;Temp;Humidity;BMP_temperature;BMP_pressure;BME280_temperature;BME280_humidity;BME280_pressure;Samples;Min_cycle;Max_cycle;Signal;HPM_P1;HPM_P2
2023/03/18 00:01:03;;;;;;;1.60;0.40;;;11.70;99.90;;;;;;5011896;28;20021;-87
2023/03/18 00:03:35;;;;;;;4.22;0.50;;;11.70;99.90;;;;;;5024584;28;20033;-89
2023/03/18 00:06:03;;;;;;;1.58;0.50;;;11.70;99.90;;;;;;5039998;28;20158;-89
2023/03/18 00:08:30;;;;;;;1.17;0.40;;;11.60;99.90;;;;;;5031585;28;20501;-89
2023/03/18 00:10:58;;;;;;;1.70;0.40;;;11.60;99.90;;;;;;5045141;28;20033;-88
2023/03/18 00:13:24;;;;;;;1.58;0.50;;;11.60;99.90;;;;;;5045885;28;20029;-90
2023/03/18 00:15:50;;;;;;;1.98;0.60;;;11.40;99.90;;;;;;5032130;28;20037;-91
2023/03/18 00:18:16;;;;;;;1.85;0.70;;;11.40;99.90;;;;;;5008719;28;20040;-88
2023/03/18 00:20:44;;;;;;;1.98;0.50;;;11.30;99.90;;;;;;5030804;28;20037;-90
2023/03/18 00:23:10;;;;;;;0.98;0.35;;;11.20;99.90;;;;;;5023836;28;20468;-90
2023/03/18 00:25:36;;;;;;;2.33;0.50;;;11.20;99.90;;;;;;5022017;28;20482;-91
2023/03/18 00:28:05;;;;;;;2.05;0.47;;;11.20;99.90;;;;;;5029013;28;20116;-89
2023/03/18 00:30:31;;;;;;;2.30;0.40;;;11.20;99.90;;;;;;5020293;28;20481;-89
2023/03/18 00:32:57;;;;;;;2.17;0.60;;;11.20;99.90;;;;;;5023923;28;20220;-90
2023/03/18 00:35:26;;;;;;;2.40;0.60;;;11.10;99.90;;;;;;5023674;28;20041;-88
2023/03/18 00:37:54;;;;;;;1.30;0.40;;;11.10;99.90;;;;;;5025381;28;20078;-88
2023/03/18 00:40:26;;;;;;;1.48;0.50;;;11.00;99.90;;;;;;5031588;28;20020;-89
2023/03/18 00:42:56;;;;;;;2.17;0.60;;;11.00;99.90;;;;;;5032744;28;20037;-88
2023/03/18 00:45:22;;;;;;;;;;;10.90;99.90;;;;;;5028922;28;20468;-88
2023/03/18 00:47:49;;;;;;;1.33;0.40;;;10.90;99.90;;;;;;5027195;28;19909;-91
2023/03/18 00:50:15;;;;;;;1.60;0.47;;;11.00;99.90;;;;;;5023387;28;20026;-89
2023/03/18 00:52:42;;;;;;;2.10;0.60;;;10.90;99.90;;;;;;5022511;28;20506;-89
2023/03/18 00:55:09;;;;;;;1.90;0.57;;;10.90;99.90;;;;;;5047286;28;20110;-90
2023/03/18 00:57:35;;;;;;;2.65;0.60;;;10.90;99.90;;;;;;5022254;28;20092;-92
2023/03/18 01:00:04;;;;;;;2.10;0.70;;;10.90;99.90;;;;;;5024955;28;20121;-90
2023/03/18 01:02:30;;;;;;;1.55;0.60;;;10.80;99.90;;;;;;5034234;28;20156;-90
2023/03/18 01:04:56;;;;;;;3.10;0.65;;;10.80;99.90;;;;;;5034650;28;20045;-92
2023/03/18 01:07:23;;;;;;;1.67;0.57;;;10.80;99.90;;;;;;5025809;28;20086;-89
2023/03/18 01:09:48;;;;;;;2.10;0.60;;;10.80;99.90;;;;;;5045923;28;20577;-88
2023/03/18 01:12:14;;;;;;;2.38;0.77;;;10.80;99.90;;;;;;5032457;28;20164;-90
2023/03/18 01:14:40;;;;;;;1.98;0.88;;;10.80;99.90;;;;;;5018857;28;20035;-91
2023/03/18 01:17:07;;;;;;;2.83;0.70;;;10.80;99.90;;;;;;5023680;28;20187;-89
2023/03/18 01:19:34;;;;;;;2.30;0.77;;;10.80;99.90;;;;;;5023278;28;20040;-90
2023/03/18 01:22:00;;;;;;;3.58;0.80;;;10.80;99.90;;;;;;5039557;28;20043;-89
2023/03/18 01:24:27;;;;;;;1.98;0.65;;;10.80;99.90;;;;;;5038475;28;20051;-89
2023/03/18 01:26:53;;;;;;;2.70;0.68;;;10.70;99.90;;;;;;5024139;28;20125;-89
2023/03/18 01:29:22;;;;;;;1.95;0.70;;;10.70;99.90;;;;;;5019808;28;20028;-89
2023/03/18 01:31:48;;;;;;;2.13;0.65;;;10.70;99.90;;;;;;5007946;28;20025;-90
2023/03/18 01:34:15;;;;;;;2.88;0.70;;;10.70;99.90;;;;;;5022474;28;20032;-89
2023/03/18 01:36:50;;;;;;;2.92;0.60;;;10.70;99.90;;;;;;5021263;28;20034;-88
2023/03/18 01:39:17;;;;;;;3.20;0.70;;;10.80;99.90;;;;;;5024399;28;20033;-89
2023/03/18 01:41:44;;;;;;;1.42;0.50;;;10.80;99.90;;;;;;5013878;28;20034;-88
2023/03/18 01:44:16;;;;;;;2.90;0.73;;;10.80;99.90;;;;;;5021045;28;20155;-87
2023/03/18 01:46:51;;;;;;;4.13;0.60;;;10.80;99.90;;;;;;5049678;28;20096;-89
2023/03/18 01:49:23;;;;;;;1.98;0.80;;;10.70;99.90;;;;;;5015122;28;20033;-87
2023/03/18 01:52:11;;;;;;;1.83;0.70;;;10.70;99.90;;;;;;5012296;28;20496;-91
2023/03/18 01:54:53;;;;;;;1.70;0.70;;;10.80;99.90;;;;;;5014214;28;20036;-88
2023/03/18 01:57:21;;;;;;;1.98;0.70;;;10.80;99.90;;;;;;5050227;28;20091;-93
2023/03/18 01:59:49;;;;;;;2.10;0.80;;;10.80;99.90;;;;;;5027020;28;20507;-88
2023/03/18 02:02:16;;;;;;;3.13;0.80;;;10.80;99.90;;;;;;5026942;28;20021;-88
2023/03/18 02:04:47;;;;;;;2.17;0.75;;;10.70;99.90;;;;;;5026223;28;20947;-90
2023/03/18 02:07:26;;;;;;;1.40;0.60;;;10.80;99.90;;;;;;5043031;28;20033;-88
2023/03/18 02:09:55;;;;;;;3.97;0.88;;;10.80;99.90;;;;;;5026841;28;20078;-91
2023/03/18 02:12:25;;;;;;;3.10;0.95;;;10.80;99.90;;;;;;5010504;28;20052;-89
2023/03/18 02:14:55;;;;;;;2.80;0.60;;;10.80;99.90;;;;;;5015750;28;20507;-89
2023/03/18 02:17:29;;;;;;;1.60;0.65;;;10.80;99.90;;;;;;5028745;28;20055;-90
2023/03/18 02:20:17;;;;;;;2.88;0.90;;;10.70;99.90;;;;;;5024715;28;20033;-90
2023/03/18 02:22:49;;;;;;;2.97;0.80;;;10.70;99.90;;;;;;5040277;28;20117;-89
2023/03/18 02:25:24;;;;;;;3.17;0.90;;;10.70;99.90;;;;;;5027018;28;20060;-88
2023/03/18 02:28:05;;;;;;;2.45;0.80;;;10.70;99.90;;;;;;5019747;28;20045;-89
2023/03/18 02:30:40;;;;;;;2.90;0.77;;;10.80;99.90;;;;;;5040753;28;20020;-89
2023/03/18 02:33:09;;;;;;;2.85;0.82;;;10.70;99.90;;;;;;5016999;28;20030;-90
2023/03/18 02:35:35;;;;;;;2.53;1.15;;;10.70;99.90;;;;;;5036796;28;20033;-87
2023/03/18 02:38:03;;;;;;;2.83;1.05;;;10.70;99.90;;;;;;5024173;28;20025;-90
2023/03/18 02:40:35;;;;;;;3.38;0.82;;;10.70;99.90;;;;;;5029835;28;20036;-88
2023/03/18 02:43:26;;;;;;;4.13;1.00;;;10.70;99.90;;;;;;5025244;28;20025;-89
2023/03/18 02:46:05;;;;;;;2.13;1.10;;;10.70;99.90;;;;;;5026405;28;20033;-89
2023/03/18 02:48:42;;;;;;;3.63;1.10;;;10.60;99.90;;;;;;5029001;28;20041;-89
2023/03/18 02:51:09;;;;;;;2.85;1.45;;;10.60;99.90;;;;;;5022226;28;20017;-88
2023/03/18 02:53:36;;;;;;;5.28;2.63;;;10.60;99.90;;;;;;5012452;28;20038;-90
2023/03/18 02:56:02;;;;;;;3.42;2.00;;;10.60;99.90;;;;;;5012923;28;20514;-92
2023/03/18 02:58:28;;;;;;;7.80;3.50;;;10.60;99.90;;;;;;5023590;28;20072;-92
2023/03/18 03:00:57;;;;;;;3.47;2.10;;;10.60;99.90;;;;;;5021150;28;20037;-90
2023/03/18 03:03:24;;;;;;;5.75;2.60;;;10.50;99.90;;;;;;5027448;28;20029;-90
2023/03/18 03:05:50;;;;;;;4.65;2.28;;;10.50;99.90;;;;;;5024044;28;20037;-93
2023/03/18 03:08:18;;;;;;;3.95;1.77;;;10.50;99.90;;;;;;5022564;28;20106;-89
2023/03/18 03:10:46;;;;;;;3.72;2.00;;;10.50;99.90;;;;;;5021582;28;20036;-89
2023/03/18 03:13:12;;;;;;;4.40;1.75;;;10.50;99.90;;;;;;5038957;28;20108;-91
2023/03/18 03:15:39;;;;;;;6.20;2.35;;;10.50;99.90;;;;;;5026503;28;20109;-92
2023/03/18 03:18:06;;;;;;;4.70;2.40;;;10.50;99.90;;;;;;5010793;28;20014;-89
2023/03/18 03:20:34;;;;;;;3.60;1.75;;;10.50;99.90;;;;;;5020108;28;20036;-90
2023/03/18 03:23:05;;;;;;;5.22;2.13;;;10.50;99.90;;;;;;5039913;28;20049;-91
2023/03/18 03:25:31;;;;;;;4.55;2.30;;;10.50;99.90;;;;;;5018509;28;20430;-90
2023/03/18 03:27:57;;;;;;;5.13;2.22;;;10.50;99.90;;;;;;5032469;28;20071;-89
2023/03/18 03:30:25;;;;;;;4.13;2.13;;;10.40;99.90;;;;;;5019626;28;20034;-91
2023/03/18 03:32:51;;;;;;;3.90;1.92;;;10.40;99.90;;;;;;5043160;28;20030;-91
2023/03/18 03:35:18;;;;;;;5.47;2.08;;;10.50;99.90;;;;;;5011998;28;20409;-89
2023/03/18 03:37:43;;;;;;;6.18;1.50;;;10.40;99.90;;;;;;5024244;28;20458;-90
2023/03/18 03:40:12;;;;;;;4.57;2.13;;;10.40;99.90;;;;;;5037804;28;20028;-90
2023/03/18 03:42:37;;;;;;;4.22;2.40;;;10.50;99.90;;;;;;5025251;28;20424;-90
2023/03/18 03:45:04;;;;;;;5.55;2.33;;;10.40;99.90;;;;;;5031047;28;20057;-90
2023/03/18 03:47:30;;;;;;;3.42;1.85;;;10.40;99.90;;;;;;5058785;28;20408;-92
2023/03/18 03:49:56;;;;;;;4.45;1.75;;;10.50;99.90;;;;;;5023260;28;20481;-92
2023/03/18 03:52:22;;;;;;;4.97;2.55;;;10.50;99.90;;;;;;5024733;28;20076;-90
2023/03/18 03:54:49;;;;;;;4.43;2.10;;;10.40;99.90;;;;;;5036393;28;20033;-90
2023/03/18 03:57:15;;;;;;;5.82;2.75;;;10.40;99.90;;;;;;5029672;28;20042;-92
2023/03/18 03:59:41;;;;;;;5.40;2.75;;;10.40;99.90;;;;;;5042126;28;20501;-91
2023/03/18 04:02:22;;;;;;;5.28;2.70;;;10.30;99.90;;;;;;5037581;28;20493;-90
2023/03/18 04:04:49;;;;;;;4.10;2.20;;;10.30;99.90;;;;;;5010389;28;20353;-92
2023/03/18 04:07:25;;;;;;;4.78;2.50;;;10.30;99.90;;;;;;5012449;28;20125;-91
2023/03/18 04:09:51;;;;;;;3.63;2.17;;;10.40;99.90;;;;;;5026516;28;20111;-91
2023/03/18 04:12:18;;;;;;;4.80;2.08;;;10.40;99.90;;;;;;5009085;28;20065;-93
2023/03/18 04:14:49;;;;;;;5.05;3.10;;;10.30;99.90;;;;;;5028985;28;20489;-91
2023/03/18 04:17:15;;;;;;;3.85;2.33;;;10.40;99.90;;;;;;5020740;28;20017;-90
2023/03/18 04:19:41;;;;;;;3.88;2.25;;;10.40;99.90;;;;;;5046037;28;20044;-93
2023/03/18 04:22:08;;;;;;;5.85;2.70;;;10.40;99.90;;;;;;5037679;28;20029;-93
2023/03/18 04:24:34;;;;;;;5.00;2.67;;;10.40;99.90;;;;;;5038025;28;20033;-91
2023/03/18 04:27:00;;;;;;;4.10;1.98;;;10.30;99.90;;;;;;5007163;28;20037;-89
2023/03/18 04:29:25;;;;;;;5.30;2.55;;;10.30;99.90;;;;;;5015581;28;20033;-90
2023/03/18 04:31:52;;;;;;;3.58;2.03;;;10.40;99.90;;;;;;5039042;28;20055;-92
2023/03/18 04:34:19;;;;;;;4.20;2.50;;;10.30;99.90;;;;;;5036475;28;20040;-90
2023/03/18 04:36:45;;;;;;;3.35;1.45;;;10.30;99.90;;;;;;5023641;28;20098;-93
2023/03/18 04:39:11;;;;;;;5.03;2.70;;;10.40;99.90;;;;;;5010769;28;20549;-93
2023/03/18 04:41:36;;;;;;;5.13;3.10;;;10.40;99.90;;;;;;5027209;28;20119;-91
2023/03/18 04:44:04;;;;;;;6.93;2.80;;;10.30;99.90;;;;;;5039425;28;20036;-89
2023/03/18 04:46:38;;;;;;;6.03;2.83;;;10.30;99.90;;;;;;5021948;28;20032;-92
2023/03/18 04:49:04;;;;;;;4.20;2.88;;;10.40;99.90;;;;;;5019995;28;20029;-91
2023/03/18 04:51:30;;;;;;;5.85;3.75;;;10.40;99.90;;;;;;5026883;28;20029;-91
2023/03/18 04:53:56;;;;;;;6.38;2.90;;;10.40;99.90;;;;;;5023845;28;20032;-92
2023/03/18 04:56:24;;;;;;;4.40;2.20;;;10.30;99.90;;;;;;5044103;28;20103;-91
2023/03/18 04:58:52;;;;;;;3.58;2.25;;;10.40;99.90;;;;;;5027409;28;20025;-91
2023/03/18 05:01:27;;;;;;;7.63;2.97;;;10.40;99.90;;;;;;5012575;28;20037;-89
2023/03/18 05:03:53;;;;;;;5.78;3.05;;;10.40;99.90;;;;;;5055053;28;20053;-93
2023/03/18 05:06:26;;;;;;;7.05;4.57;;;10.40;99.90;;;;;;5022272;28;20128;-92
2023/03/18 05:09:12;;;;;;;7.43;4.13;;;10.40;99.90;;;;;;5030342;28;20026;-92
2023/03/18 05:11:39;;;;;;;5.55;3.95;;;10.40;99.90;;;;;;5011528;28;20025;-89
2023/03/18 05:14:27;;;;;;;6.38;4.32;;;10.40;99.90;;;;;;5035894;28;20033;-91
2023/03/18 05:16:54;;;;;;;7.78;4.25;;;10.40;99.90;;;;;;5036122;28;20021;-91
2023/03/18 05:19:20;;;;;;;7.55;4.38;;;10.40;99.90;;;;;;5019255;28;20067;-92
2023/03/18 05:21:55;;;;;;;8.40;3.97;;;10.30;99.90;;;;;;5006789;28;20589;-92
2023/03/18 05:24:20;;;;;;;6.38;3.78;;;10.30;99.90;;;;;;5008044;28;20029;-91
2023/03/18 05:26:47;;;;;;;5.18;3.45;;;10.30;99.90;;;;;;5021011;28;20044;-90
2023/03/18 05:29:15;;;;;;;6.50;3.92;;;10.30;99.90;;;;;;5026607;28;20116;-91
2023/03/18 05:31:55;;;;;;;4.95;3.53;;;10.30;99.90;;;;;;5022981;28;20080;-89
2023/03/18 05:34:22;;;;;;;5.53;3.80;;;10.30;99.90;;;;;;5020402;28;20060;-90
2023/03/18 05:36:48;;;;;;;7.13;4.30;;;10.20;99.90;;;;;;5010807;28;20018;-91
2023/03/18 05:39:14;;;;;;;5.88;4.32;;;10.20;99.90;;;;;;5019375;28;20083;-91
2023/03/18 05:41:40;;;;;;;5.70;4.30;;;10.30;99.90;;;;;;5008876;28;20022;-90
2023/03/18 05:44:08;;;;;;;7.07;4.15;;;10.30;99.90;;;;;;5027427;28;20038;-92
2023/03/18 05:46:37;;;;;;;4.97;3.25;;;10.30;99.90;;;;;;5019853;28;20040;-93
2023/03/18 05:49:09;;;;;;;8.05;4.47;;;10.30;99.90;;;;;;5026421;28;20025;-90
2023/03/18 05:51:45;;;;;;;7.53;4.15;;;10.40;99.90;;;;;;5045310;28;20055;-91
2023/03/18 05:54:16;;;;;;;6.05;4.20;;;10.30;99.90;;;;;;5006790;28;20034;-90
2023/03/18 05:56:44;;;;;;;6.28;4.22;;;10.30;99.90;;;;;;5026439;28;20430;-93
2023/03/18 05:59:12;;;;;;;6.95;4.03;;;10.30;99.90;;;;;;5025366;28;20025;-92
2023/03/18 06:01:49;;;;;;;5.57;3.92;;;10.30;99.90;;;;;;5027700;28;20029;-91
2023/03/18 06:04:18;;;;;;;6.40;3.88;;;10.30;99.90;;;;;;5008910;28;20025;-92
2023/03/18 06:06:45;;;;;;;6.22;4.10;;;10.30;99.90;;;;;;5009015;28;20033;-89
2023/03/18 06:09:12;;;;;;;6.53;4.32;;;10.40;99.90;;;;;;5046073;28;20057;-89
2023/03/18 06:11:42;;;;;;;4.25;3.42;;;10.40;99.90;;;;;;5024511;28;20555;-91
2023/03/18 06:14:10;;;;;;;5.78;3.20;;;10.40;99.90;;;;;;5031445;28;20394;-91
2023/03/18 06:16:36;;;;;;;6.68;4.25;;;10.40;99.90;;;;;;5008683;28;20038;-89
2023/03/18 06:19:03;;;;;;;7.18;4.20;;;10.50;99.90;;;;;;5045824;28;20117;-92
2023/03/18 06:21:30;;;;;;;7.95;4.40;;;10.40;99.90;;;;;;5021866;28;20075;-92
2023/03/18 06:23:56;;;;;;;5.57;4.85;;;10.50;99.90;;;;;;5012283;28;22053;-89
2023/03/18 06:26:22;;;;;;;7.05;4.65;;;10.50;99.90;;;;;;5012722;28;20133;-91
2023/03/18 06:28:48;;;;;;;7.28;5.57;;;10.50;99.90;;;;;;5038590;28;20047;-93
2023/03/18 06:31:16;;;;;;;8.15;5.82;;;10.50;99.90;;;;;;5032311;28;20029;-93
2023/03/18 06:33:42;;;;;;;10.57;5.78;;;10.50;99.90;;;;;;5026318;28;20025;-90
2023/03/18 06:36:10;;;;;;;8.73;5.57;;;10.50;99.90;;;;;;5044564;28;20405;-90
2023/03/18 06:38:37;;;;;;;7.63;4.70;;;10.60;99.90;;;;;;5040789;28;20428;-90
2023/03/18 06:41:03;;;;;;;8.10;5.97;;;10.60;99.90;;;;;;5011275;28;20025;-92
2023/03/18 06:43:33;;;;;;;;;;;10.70;99.90;;;;;;5024120;28;20064;-90
2023/03/18 06:46:00;;;;;;;7.25;5.22;;;10.60;99.90;;;;;;5020814;28;19970;-91
2023/03/18 06:48:27;;;;;;;6.28;4.63;;;10.70;99.90;;;;;;5014188;28;20025;-92
2023/03/18 06:50:54;;;;;;;8.07;4.78;;;10.60;99.90;;;;;;5021951;28;20032;-92
2023/03/18 06:53:24;;;;;;;6.07;4.32;;;10.60;99.90;;;;;;5039584;28;20060;-91
2023/03/18 06:55:50;;;;;;;6.18;4.40;;;10.70;99.90;;;;;;5026276;28;20028;-93
2023/03/18 06:58:20;;;;;;;5.78;3.65;;;10.70;99.90;;;;;;5027217;28;20068;-92
2023/03/18 07:00:55;;;;;;;8.88;4.68;;;10.80;99.90;;;;;;5031840;28;20541;-91
2023/03/18 07:03:26;;;;;;;7.10;4.60;;;10.80;99.90;;;;;;5028096;28;20033;-92
2023/03/18 07:05:53;;;;;;;6.55;4.38;;;10.90;99.90;;;;;;5027610;28;20096;-91
2023/03/18 07:08:19;;;;;;;6.70;4.32;;;10.90;99.90;;;;;;5010296;28;20058;-91
2023/03/18 07:10:44;;;;;;;6.85;4.38;;;10.90;99.90;;;;;;5023290;28;20091;-92
2023/03/18 07:13:14;;;;;;;7.43;5.10;;;11.00;99.90;;;;;;5049540;28;20090;-92
2023/03/18 07:15:41;;;;;;;6.97;4.70;;;11.00;99.90;;;;;;5037412;28;20405;-91
2023/03/18 07:18:08;;;;;;;7.97;5.00;;;11.20;99.90;;;;;;5034298;28;20029;-92
2023/03/18 07:20:35;;;;;;;5.68;3.95;;;11.10;99.90;;;;;;5037222;28;20034;-92
2023/03/18 07:23:02;;;;;;;6.60;4.47;;;11.20;99.90;;;;;;5027320;28;20104;-93
2023/03/18 07:25:29;;;;;;;6.65;3.90;;;11.10;99.90;;;;;;5028043;28;20056;-92
2023/03/18 07:27:55;;;;;;;5.45;4.07;;;11.20;99.90;;;;;;5047275;28;20021;-92
2023/03/18 07:30:21;;;;;;;6.20;4.15;;;11.10;99.90;;;;;;5016408;28;20517;-93
2023/03/18 07:32:48;;;;;;;6.68;4.97;;;11.10;99.90;;;;;;5039631;28;20038;-92
2023/03/18 07:35:14;;;;;;;8.20;4.97;;;11.10;99.90;;;;;;5045121;28;20029;-90
2023/03/18 07:37:40;;;;;;;6.88;4.35;;;11.30;99.90;;;;;;5025900;28;20022;-94
2023/03/18 07:40:08;;;;;;;7.45;4.85;;;11.50;99.90;;;;;;5038763;28;20388;-92
2023/03/18 07:42:33;;;;;;;5.38;4.57;;;11.50;99.90;;;;;;5034702;28;20017;-94
2023/03/18 07:44:59;;;;;;;7.90;4.68;;;11.50;99.90;;;;;;5031821;28;20523;-93
2023/03/18 07:47:25;;;;;;;5.88;4.32;;;11.50;99.90;;;;;;5036498;28;20028;-94
2023/03/18 07:49:51;;;;;;;8.15;5.18;;;11.50;99.90;;;;;;5025475;28;20121;-90
2023/03/18 07:52:17;;;;;;;6.75;5.07;;;11.50;99.90;;;;;;5032977;28;20029;-92
2023/03/18 07:54:44;;;;;;;6.57;4.32;;;11.50;99.90;;;;;;5008888;28;20029;-92
2023/03/18 07:57:09;;;;;;;6.63;4.35;;;11.60;99.90;;;;;;5031144;28;20131;-92
2023/03/18 07:59:36;;;;;;;7.72;5.78;;;11.60;99.90;;;;;;5025550;28;20067;-90
2023/03/18 08:02:03;;;;;;;6.72;4.82;;;11.80;99.90;;;;;;5037839;28;20037;-94
2023/03/18 08:04:31;;;;;;;7.80;5.85;;;12.10;99.90;;;;;;5038695;28;20453;-95
2023/03/18 08:06:57;;;;;;;6.20;4.45;;;12.30;99.90;;;;;;5026091;28;20039;-92
2023/03/18 08:09:23;;;;;;;6.13;4.30;;;12.60;99.90;;;;;;5027832;28;20033;-90
2023/03/18 08:11:49;;;;;;;5.22;4.13;;;12.70;99.90;;;;;;5039053;28;20037;-95
2023/03/18 08:14:15;;;;;;;7.53;4.45;;;12.60;99.90;;;;;;5040349;28;20029;-93
2023/03/18 08:16:40;;;;;;;6.63;4.68;;;12.30;99.90;;;;;;5022609;28;20029;-94
2023/03/18 08:19:06;;;;;;;5.85;4.18;;;12.30;99.90;;;;;;5021857;28;20139;-92
2023/03/18 08:21:32;;;;;;;7.45;4.72;;;12.60;99.90;;;;;;5029130;28;20033;-95
2023/03/18 08:23:57;;;;;;;8.38;5.32;;;12.90;99.90;;;;;;5023958;28;20025;-94
2023/03/18 08:26:23;;;;;;;7.10;4.97;;;12.90;99.90;;;;;;5043379;28;20072;-91
2023/03/18 08:28:49;;;;;;;6.57;4.88;;;12.90;99.90;;;;;;5008347;28;20025;-94
2023/03/18 08:31:14;;;;;;;8.45;5.93;;;12.80;99.90;;;;;;5063036;28;20029;-92
2023/03/18 08:33:41;;;;;;;8.35;4.93;;;12.80;99.90;;;;;;5038893;28;20086;-92
2023/03/18 08:36:07;;;;;;;9.02;6.60;;;12.70;99.90;;;;;;5025581;28;20473;-92
2023/03/18 08:38:35;;;;;;;9.65;7.05;;;12.90;99.90;;;;;;5022441;28;20037;-91
2023/03/18 08:41:05;;;;;;;8.30;6.10;;;12.80;99.90;;;;;;5013731;28;20029;-95
2023/03/18 08:43:31;;;;;;;5.40;4.47;;;12.90;99.90;;;;;;5024588;28;20033;-92
2023/03/18 08:45:57;;;;;;;6.40;4.25;;;13.00;99.90;;;;;;5022041;28;20493;-93
2023/03/18 08:48:24;;;;;;;5.65;4.22;;;12.90;99.90;;;;;;5022172;28;20030;-96
2023/03/18 08:50:50;;;;;;;8.15;5.78;;;12.90;99.90;;;;;;5022413;28;20037;-96
2023/03/18 08:53:16;;;;;;;7.65;4.68;;;12.90;99.90;;;;;;5027113;28;20493;-95
2023/03/18 08:55:42;;;;;;;6.50;4.55;;;13.00;99.90;;;;;;5019762;28;20034;-94
2023/03/18 08:58:08;;;;;;;8.57;5.30;;;13.00;99.90;;;;;;5032539;28;20056;-96
2023/03/18 09:00:36;;;;;;;9.23;5.78;;;12.90;99.90;;;;;;5039408;28;20032;-96
2023/03/18 09:03:02;;;;;;;6.22;4.28;;;13.00;99.90;;;;;;5022714;28;20032;-96
2023/03/18 09:05:31;;;;;;;4.85;3.80;;;13.50;99.90;;;;;;5018529;28;20517;-95
2023/03/18 09:07:57;;;;;;;5.30;3.72;;;13.70;99.90;;;;;;5006222;28;20034;-95
2023/03/18 09:10:24;;;;;;;6.32;3.88;;;13.60;99.90;;;;;;5013820;28;20037;-95
2023/03/18 09:12:50;;;;;;;7.78;5.22;;;13.70;99.90;;;;;;4983745;28;20183;-95
2023/03/18 09:15:19;;;;;;;4.32;3.25;;;13.80;99.90;;;;;;5011921;28;20147;-91
2023/03/18 09:17:45;;;;;;;5.65;3.15;;;13.90;99.90;;;;;;5026457;28;20127;-94
2023/03/18 09:20:14;;;;;;;5.10;4.55;;;13.90;99.90;;;;;;5013868;28;20124;-94
2023/03/18 09:22:41;;;;;;;8.43;7.00;;;13.70;99.90;;;;;;5010099;28;20381;-95
2023/03/18 09:25:08;;;;;;;6.22;5.63;;;13.40;99.90;;;;;;5031706;28;20064;-94
2023/03/18 09:27:34;;;;;;;5.07;4.50;;;13.70;99.90;;;;;;5013100;28;20371;-94
2023/03/18 09:30:00;;;;;;;6.15;4.15;;;14.20;99.90;;;;;;5029976;28;20041;-93
2023/03/18 09:32:26;;;;;;;4.47;3.92;;;14.20;99.90;;;;;;5011696;28;20075;-95
2023/03/18 09:34:52;;;;;;;5.93;3.78;;;14.40;99.90;;;;;;5045530;28;20036;-90
2023/03/18 09:37:18;;;;;;;5.80;4.05;;;14.50;99.90;;;;;;5011766;28;20112;-91
2023/03/18 09:39:46;;;;;;;5.10;4.07;;;14.60;99.90;;;;;;5026782;28;20064;-93
2023/03/18 09:42:31;;;;;;;6.28;4.68;;;14.80;99.90;;;;;;5010386;28;20061;-91
2023/03/18 09:45:01;;;;;;;4.82;4.05;;;15.00;99.90;;;;;;5016915;28;20045;-92
2023/03/18 09:48:02;;;;;;;4.72;3.50;;;15.00;99.90;;;;;;5010398;28;20033;-91
2023/03/18 09:51:00;;;;;;;4.50;3.03;;;15.20;99.90;;;;;;5010707;28;20045;-90
2023/03/18 09:53:58;;;;;;;4.70;2.50;;;15.10;99.90;;;;;;5027609;28;20044;-94
2023/03/18 09:56:33;;;;;;;5.55;2.45;;;15.40;99.90;;;;;;5008012;28;20051;-94
2023/03/18 09:59:33;;;;;;;5.82;2.42;;;15.20;99.90;;;;;;5010711;28;20033;-94
2023/03/18 10:01:59;;;;;;;5.45;2.47;;;15.20;99.90;;;;;;5013611;28;20140;-91
2023/03/18 10:04:47;;;;;;;4.32;2.33;;;15.30;99.90;;;;;;5043888;28;20037;-91
2023/03/18 10:07:21;;;;;;;3.38;2.67;;;15.50;99.90;;;;;;5031859;28;20064;-95
2023/03/18 10:10:09;;;;;;;3.97;2.55;;;15.20;99.90;;;;;;5021262;28;20025;-89
2023/03/18 10:12:41;;;;;;;4.25;2.15;;;15.40;99.90;;;;;;5033912;28;20089;-94
2023/03/18 10:15:12;;;;;;;2.65;1.50;;;15.50;99.90;;;;;;5036083;28;20041;-95
2023/03/18 10:18:04;;;;;;;4.53;3.20;;;15.80;99.90;;;;;;5019770;28;20085;-95
2023/03/18 10:20:55;;;;;;;3.42;2.40;;;15.70;99.90;;;;;;5039089;28;20468;-89
2023/03/18 10:23:50;;;;;;;3.45;2.53;;;16.00;99.90;;;;;;5023445;28;20030;-95
2023/03/18 10:26:29;;;;;;;3.20;2.17;;;16.00;99.90;;;;;;4973653;28;20550;-94
2023/03/18 10:29:07;;;;;;;3.13;1.92;;;15.90;99.90;;;;;;4987096;28;20034;-92
2023/03/18 10:32:04;;;;;;;2.75;1.67;;;16.00;99.90;;;;;;4987570;28;20042;-95
2023/03/18 10:34:58;;;;;;;3.00;1.20;;;16.20;99.90;;;;;;4971761;28;20511;-96
2023/03/18 10:37:43;;;;;;;2.90;1.20;;;16.40;99.90;;;;;;4959739;28;20055;-92
2023/03/18 10:40:12;;;;;;;4.05;1.50;;;16.30;99.90;;;;;;4972836;28;20189;-93
2023/03/18 10:42:40;;;;;;;2.35;1.17;;;16.40;99.90;;;;;;4972979;28;20055;-91
2023/03/18 10:45:18;;;;;;;2.45;0.77;;;16.70;99.90;;;;;;4970017;28;20113;-90
2023/03/18 10:47:50;;;;;;;2.83;1.42;;;16.90;99.90;;;;;;4969383;28;20462;-92
2023/03/18 10:50:19;;;;;;;2.78;1.15;;;16.80;99.90;;;;;;4986612;28;20038;-94
2023/03/18 10:53:21;;;;;;;1.80;0.73;;;17.00;99.90;;;;;;4955526;28;20038;-95
2023/03/18 10:56:09;;;;;;;2.47;0.88;;;17.00;99.90;;;;;;4986975;28;20061;-93
2023/03/18 10:58:36;;;;;;;3.25;1.10;;;17.10;99.90;;;;;;4972740;28;20092;-96
2023/03/18 11:01:06;;;;;;;2.72;0.95;;;16.90;99.90;;;;;;4972575;28;20034;-89
2023/03/18 11:03:35;;;;;;;3.42;1.00;;;17.00;99.90;;;;;;5019160;28;20390;-94
2023/03/18 11:06:03;;;;;;;1.50;0.50;;;17.10;99.90;;;;;;5012733;28;20060;-95
2023/03/18 11:08:35;;;;;;;1.58;0.47;;;17.50;99.90;;;;;;5020705;28;20025;-94
2023/03/18 11:11:32;;;;;;;0.90;0.38;;;17.60;99.90;;;;;;5025638;28;20033;-94
2023/03/18 11:14:00;;;;;;;2.00;0.50;;;17.80;99.90;;;;;;5017550;28;20053;-93
2023/03/18 11:16:41;;;;;;;1.63;0.40;;;17.40;99.90;;;;;;5031134;28;20034;-93
2023/03/18 11:19:47;;;;;;;1.40;0.50;;;17.60;99.90;;;;;;5033175;28;20544;-94
2023/03/18 11:22:21;;;;;;;1.33;0.50;;;17.30;99.90;;;;;;5010251;28;20486;-92
2023/03/18 11:25:15;;;;;;;1.15;0.50;;;17.10;99.90;;;;;;5030397;28;20068;-91
2023/03/18 11:27:47;;;;;;;0.75;0.35;;;17.50;99.90;;;;;;5030275;28;20485;-95
2023/03/18 11:30:21;;;;;;;1.70;0.40;;;17.80;99.90;;;;;;5014556;28;20053;-92
2023/03/18 11:32:53;;;;;;;2.60;0.50;;;17.80;99.90;;;;;;5025432;28;20030;-93
2023/03/18 11:35:22;;;;;;;1.60;0.70;;;17.70;99.90;;;;;;5013648;28;20040;-91
2023/03/18 11:37:49;;;;;;;1.92;0.50;;;17.20;99.90;;;;;;5045484;28;20030;-93
2023/03/18 11:40:38;;;;;;;1.40;0.40;;;17.40;99.90;;;;;;5030294;28;20443;-91
2023/03/18 11:43:16;;;;;;;1.42;0.50;;;17.60;99.90;;;;;;5026048;28;20034;-93
2023/03/18 11:45:59;;;;;;;1.95;0.45;;;18.10;99.90;;;;;;5026214;28;20049;-92
2023/03/18 11:48:43;;;;;;;1.63;0.50;;;18.10;99.90;;;;;;5043986;28;20053;-93
2023/03/18 11:51:24;;;;;;;0.93;0.40;;;18.00;99.90;;;;;;5024237;28;20037;-93
2023/03/18 11:54:13;;;;;;;0.85;0.30;;;18.10;99.90;;;;;;5012234;28;20598;-91
2023/03/18 11:56:50;;;;;;;1.67;0.30;;;18.30;99.90;;;;;;5012457;28;20042;-93
2023/03/18 11:59:58;;;;;;;0.68;0.20;;;18.20;99.90;;;;;;5013881;28;20037;-94
2023/03/18 12:02:31;;;;;;;1.27;0.32;;;18.30;99.90;;;;;;5029544;28;20029;-93
2023/03/18 12:05:17;;;;;;;0.95;0.35;;;18.00;99.90;;;;;;5031211;28;20037;-95
2023/03/18 12:07:59;;;;;;;0.60;0.20;;;18.10;99.90;;;;;;5005476;28;20116;-93
2023/03/18 12:10:47;;;;;;;1.25;0.20;;;17.80;99.90;;;;;;5021128;28;20045;-94
2023/03/18 12:13:21;;;;;;;2.22;0.30;;;18.10;99.90;;;;;;5013580;28;20041;-94
2023/03/18 12:16:06;;;;;;;1.30;0.30;;;18.40;99.90;;;;;;5015032;28;20025;-88
2023/03/18 12:18:48;;;;;;;1.98;0.30;;;18.60;99.90;;;;;;5026859;28;20110;-95
2023/03/18 12:21:38;;;;;;;1.00;0.35;;;18.80;99.90;;;;;;5032017;28;20022;-95
2023/03/18 12:24:23;;;;;;;0.88;0.30;;;18.30;99.90;;;;;;5029165;28;20033;-95
2023/03/18 12:27:22;;;;;;;2.38;0.50;;;18.00;99.90;;;;;;5024321;28;20048;-93
2023/03/18 12:30:19;;;;;;;1.92;0.30;;;17.60;99.90;;;;;;5034796;28;20030;-94
2023/03/18 12:33:16;;;;;;;0.95;0.40;;;17.80;99.90;;;;;;5016237;28;20025;-94
2023/03/18 12:36:21;;;;;;;1.23;0.40;;;17.50;99.90;;;;;;5012491;28;20032;-95
2023/03/18 12:39:25;;;;;;;1.25;0.40;;;17.40;99.90;;;;;;4996076;28;20033;-93
2023/03/18 12:42:03;;;;;;;0.88;0.32;;;17.40;99.90;;;;;;5009265;28;20461;-95
2023/03/18 12:44:39;;;;;;;1.40;0.40;;;17.20;99.90;;;;;;5025797;28;20096;-91
2023/03/18 12:47:35;;;;;;;1.45;0.40;;;17.20;99.90;;;;;;5021021;28;20042;-95
2023/03/18 12:50:25;;;;;;;0.80;0.30;;;17.20;99.90;;;;;;5024044;28;20026;-94
2023/03/18 12:53:10;;;;;;;1.27;0.30;;;17.30;99.90;;;;;;5018880;28;20025;-92
2023/03/18 12:55:44;;;;;;;1.33;0.40;;;17.10;99.90;;;;;;5017777;28;20030;-94
2023/03/18 12:58:22;;;;;;;1.20;0.30;;;17.30;99.90;;;;;;5026802;28;20131;-95
2023/03/18 13:01:23;;;;;;;1.13;0.20;;;17.30;99.90;;;;;;5031064;28;20041;-94
2023/03/18 13:04:01;;;;;;;0.70;0.20;;;17.30;99.90;;;;;;5015033;28;20061;-94
2023/03/18 13:07:05;;;;;;;0.30;0.20;;;17.20;99.90;;;;;;5014258;28;20041;-92
2023/03/18 13:09:40;;;;;;;0.80;0.20;;;17.10;99.90;;;;;;5001403;28;21163;-95
2023/03/18 13:12:19;;;;;;;1.05;0.30;;;17.00;99.90;;;;;;4989567;28;20370;-93